Time;durP1;ratioP1;P1;durP2;ratioP2;P2;SDS_P1;SDS_P2;PMS_P1;PMS_P2;Temp;Humidity;BMP_temperature;BMP_pressure;BME280_temperature;BME280_humidity;BME280_pressure;Samples;Min_cycle;Max_cycle;Signal;HPM_P1;HPM_P2
2021/06/26 00:00:57;;;;;;;31.30;28.02;;;16.70;99.90;;;;;;5083491;28;20063;-65
2021/06/26 00:03:27;;;;;;;34.05;30.13;;;16.70;99.90;;;;;;5081202;28;20056;-65
2021/06/26 00:05:54;;;;;;;35.00;31.33;;;16.70;99.90;;;;;;5080251;28;20059;-65
2021/06/26 00:08:21;;;;;;;32.70;29.40;;;16.70;99.90;;;;;;5082108;28;20032;-65
2021/06/26 00:10:47;;;;;;;33.40;30.05;;;16.70;99.90;;;;;;5079727;28;20048;-65
2021/06/26 00:13:14;;;;;;;31.70;28.60;;;16.80;99.90;;;;;;5080679;28;20032;-65
2021/06/26 00:15:40;;;;;;;32.90;29.73;;;16.70;99.90;;;;;;5080452;28;20094;-65
2021/06/26 00:18:06;;;;;;;32.17;29.10;;;16.80;99.90;;;;;;5081847;28;20048;-65
2021/06/26 00:20:32;;;;;;;31.70;28.52;;;16.70;99.90;;;;;;5078348;28;20043;-65
2021/06/26 00:22:58;;;;;;;30.75;27.52;;;16.70;99.90;;;;;;5077591;28;20067;-65
2021/06/26 00:25:25;;;;;;;33.15;29.77;;;16.70;99.90;;;;;;5081062;28;20521;-65
2021/06/26 00:27:51;;;;;;;33.45;30.08;;;16.70;99.90;;;;;;5080348;28;20032;-65
2021/06/26 00:30:18;;;;;;;32.78;29.55;;;16.70;99.90;;;;;;5080187;28;20047;-65
2021/06/26 00:32:44;;;;;;;32.25;28.85;;;16.70;99.90;;;;;;5079371;28;20047;-65
2021/06/26 00:35:11;;;;;;;35.67;31.95;;;16.70;99.90;;;;;;5081947;28;20157;-65
2021/06/26 00:37:37;;;;;;;33.55;30.10;;;16.70;99.90;;;;;;5083040;28;20047;-65
2021/06/26 00:40:05;;;;;;;32.63;29.13;;;16.70;99.90;;;;;;5084627;28;20044;-65
2021/06/26 00:42:31;;;;;;;32.13;28.92;;;16.60;99.90;;;;;;5084072;28;20043;-65
2021/06/26 00:44:57;;;;;;;32.15;28.98;;;16.50;99.90;;;;;;5083896;28;20051;-65
2021/06/26 00:47:23;;;;;;;32.88;29.45;;;16.60;99.90;;;;;;5081527;28;20370;-65
2021/06/26 00:49:49;;;;;;;32.05;28.67;;;16.60;99.90;;;;;;5086049;28;20040;-65
2021/06/26 00:52:15;;;;;;;34.45;30.95;;;16.60;99.90;;;;;;5084234;28;20284;-65
2021/06/26 00:54:41;;;;;;;31.90;28.77;;;16.60;99.90;;;;;;5083661;28;20629;-65
2021/06/26 00:57:07;;;;;;;31.50;28.35;;;16.60;99.90;;;;;;5082622;28;20036;-65
2021/06/26 00:59:33;;;;;;;33.10;29.50;;;16.60;99.90;;;;;;5083268;28;20040;-65
2021/06/26 01:02:00;;;;;;;31.70;28.30;;;16.60;99.90;;;;;;5085106;28;20036;-65
2021/06/26 01:04:25;;;;;;;33.70;30.05;;;16.60;99.90;;;;;;5083852;28;20031;-65
2021/06/26 01:06:51;;;;;;;34.92;31.63;;;16.60;99.90;;;;;;5081550;28;20720;-65
2021/06/26 01:09:17;;;;;;;35.63;31.98;;;16.60;99.90;;;;;;5083002;28;20122;-65
2021/06/26 01:11:43;;;;;;;33.30;30.00;;;16.70;99.90;;;;;;5084873;28;20501;-65
2021/06/26 01:14:09;;;;;;;33.13;29.73;;;16.70;99.90;;;;;;5080797;28;20059;-65
2021/06/26 01:16:35;;;;;;;34.55;31.10;;;16.70;99.90;;;;;;5080700;28;20040;-65
2021/06/26 01:19:00;;;;;;;33.33;29.85;;;16.60;99.90;;;;;;5082370;28;20803;-65
2021/06/26 01:21:26;;;;;;;33.20;29.75;;;16.70;99.90;;;;;;5082862;28;20050;-65
2021/06/26 01:23:55;;;;;;;33.15;29.65;;;16.70;99.90;;;;;;5080353;28;20036;-65
2021/06/26 01:26:25;;;;;;;34.17;30.73;;;16.70;99.90;;;;;;5080447;28;20036;-65
2021/06/26 01:28:50;;;;;;;33.13;29.45;;;16.70;99.90;;;;;;5082856;28;20040;-65
2021/06/26 01:31:16;;;;;;;32.75;29.40;;;16.70;99.90;;;;;;5081973;28;20040;-65
2021/06/26 01:33:42;;;;;;;33.95;30.58;;;16.70;99.90;;;;;;5085618;28;20044;-65
2021/06/26 01:36:07;;;;;;;34.88;31.17;;;16.70;99.90;;;;;;5083084;28;20474;-65
2021/06/26 01:38:34;;;;;;;31.55;28.45;;;16.70;99.90;;;;;;5080934;28;20036;-65
2021/06/26 01:40:59;;;;;;;33.40;29.83;;;16.70;99.90;;;;;;5082781;28;20032;-65
2021/06/26 01:43:25;;;;;;;33.08;29.60;;;16.70;99.90;;;;;;5083118;28;20225;-65
2021/06/26 01:45:51;;;;;;;35.30;31.58;;;16.70;99.90;;;;;;5082607;28;20039;-65
2021/06/26 01:48:16;;;;;;;32.92;29.75;;;16.70;99.90;;;;;;5082463;28;20627;-65
2021/06/26 01:50:42;;;;;;;34.28;30.77;;;16.80;99.90;;;;;;5083407;28;20040;-65
2021/06/26 01:53:08;;;;;;;32.95;29.60;;;16.80;99.90;;;;;;5083792;28;20044;-65
2021/06/26 01:55:33;;;;;;;34.28;30.65;;;16.80;99.90;;;;;;5084928;28;20040;-65
2021/06/26 01:57:59;;;;;;;34.85;31.05;;;16.80;99.90;;;;;;5082873;28;20032;-65
2021/06/26 02:00:25;;;;;;;33.38;29.73;;;16.70;99.90;;;;;;5081006;28;20075;-65
2021/06/26 02:02:51;;;;;;;33.70;30.10;;;16.70;99.90;;;;;;5082216;28;20046;-65
2021/06/26 02:05:22;;;;;;;32.10;28.85;;;16.70;99.90;;;;;;5080688;28;20040;-65
2021/06/26 02:07:48;;;;;;;36.88;29.80;;;16.70;99.90;;;;;;5084843;28;20044;-65
2021/06/26 02:10:14;;;;;;;34.72;31.10;;;16.80;99.90;;;;;;5082680;28;20032;-65
2021/06/26 02:12:41;;;;;;;33.80;30.40;;;16.80;99.90;;;;;;5079446;28;20125;-65
2021/06/26 02:15:08;;;;;;;34.05;30.55;;;16.80;99.90;;;;;;5084154;28;20113;-65
2021/06/26 02:17:34;;;;;;;32.65;29.25;;;16.70;99.90;;;;;;5082320;28;20506;-65
2021/06/26 02:19:59;;;;;;;33.97;30.42;;;16.80;99.90;;;;;;5081060;28;20072;-65
2021/06/26 02:22:25;;;;;;;34.95;31.25;;;16.80;99.90;;;;;;5082703;28;20509;-65
2021/06/26 02:24:51;;;;;;;32.85;29.58;;;16.80;99.90;;;;;;5080959;28;20118;-65
2021/06/26 02:27:17;;;;;;;37.63;33.03;;;16.80;99.90;;;;;;5081399;28;20738;-65
2021/06/26 02:29:43;;;;;;;32.75;29.38;;;16.80;99.90;;;;;;5079986;28;20032;-65
2021/06/26 02:32:08;;;;;;;35.80;31.80;;;16.80;99.90;;;;;;5083299;28;20044;-65
2021/06/26 02:34:34;;;;;;;34.63;30.90;;;16.80;99.90;;;;;;5088269;28;20090;-65
2021/06/26 02:37:02;;;;;;;32.60;29.35;;;16.80;99.90;;;;;;5085729;28;20032;-65
2021/06/26 02:39:28;;;;;;;35.47;31.05;;;16.70;99.90;;;;;;5086418;28;20529;-65
2021/06/26 02:41:53;;;;;;;36.42;32.70;;;16.80;99.90;;;;;;5085549;28;20047;-65
2021/06/26 02:44:19;;;;;;;35.95;32.17;;;16.80;99.90;;;;;;5084602;28;20563;-65
2021/06/26 02:46:45;;;;;;;32.88;29.38;;;16.80;99.90;;;;;;5088655;28;20036;-65
2021/06/26 02:49:10;;;;;;;36.45;31.33;;;16.80;99.90;;;;;;5086870;28;20036;-65
2021/06/26 02:51:36;;;;;;;33.97;30.20;;;16.80;99.90;;;;;;5089541;28;20040;-65
2021/06/26 02:54:01;;;;;;;35.92;32.25;;;16.80;99.90;;;;;;5086515;28;20496;-65
2021/06/26 02:56:28;;;;;;;31.77;28.50;;;16.70;99.90;;;;;;5088543;28;20045;-65
2021/06/26 02:58:53;;;;;;;31.75;28.75;;;16.70;99.90;;;;;;5088735;28;20452;-65
2021/06/26 03:01:19;;;;;;;33.58;30.08;;;16.70;99.90;;;;;;5084896;28;20107;-65
2021/06/26 03:03:44;;;;;;;38.70;30.83;;;16.70;99.90;;;;;;5085464;28;20414;-65
2021/06/26 03:06:10;;;;;;;33.08;29.83;;;16.80;99.90;;;;;;5087391;28;20093;-65
2021/06/26 03:09:04;;;;;;;36.58;32.70;;;16.80;99.90;;;;;;5087400;28;20049;-65
2021/06/26 03:11:30;;;;;;;31.15;27.75;;;16.80;99.90;;;;;;5082884;28;20040;-65
2021/06/26 03:13:55;;;;;;;35.10;31.48;;;16.70;99.90;;;;;;5087337;28;20036;-65
2021/06/26 03:16:21;;;;;;;34.90;31.20;;;16.80;99.90;;;;;;5086422;28;20055;-65
2021/06/26 03:18:47;;;;;;;38.03;34.00;;;16.80;99.90;;;;;;5085420;28;20051;-65
2021/06/26 03:21:12;;;;;;;35.78;31.58;;;16.80;99.90;;;;;;5087225;28;20063;-65
2021/06/26 03:23:44;;;;;;;35.63;31.80;;;16.80;99.90;;;;;;5088216;28;20075;-65
2021/06/26 03:26:10;;;;;;;35.25;31.35;;;16.80;99.90;;;;;;5086979;28;20555;-65
2021/06/26 03:28:37;;;;;;;35.05;31.40;;;16.80;99.90;;;;;;5086712;28;20040;-65
2021/06/26 03:31:07;;;;;;;33.90;30.30;;;16.80;99.90;;;;;;5087648;28;20124;-65
2021/06/26 03:33:33;;;;;;;37.97;33.83;;;16.80;99.90;;;;;;5086240;28;20697;-65
2021/06/26 03:35:59;;;;;;;38.50;34.47;;;16.80;99.90;;;;;;5084287;28;20081;-65
2021/06/26 03:38:25;;;;;;;34.00;30.48;;;16.80;99.90;;;;;;5085797;28;20029;-65
2021/06/26 03:40:53;;;;;;;32.55;29.35;;;16.80;99.90;;;;;;5086282;28;20067;-65
2021/06/26 03:43:19;;;;;;;35.55;31.85;;;16.80;99.90;;;;;;5087396;28;20671;-65
2021/06/26 03:45:45;;;;;;;37.42;33.50;;;16.80;99.90;;;;;;5087388;28;20067;-65
2021/06/26 03:48:11;;;;;;;36.67;32.75;;;16.80;99.90;;;;;;5088240;28;20485;-65
2021/06/26 03:50:38;;;;;;;33.60;30.23;;;16.80;99.90;;;;;;5087539;28;20039;-65
2021/06/26 03:53:05;;;;;;;33.20;29.75;;;16.90;99.90;;;;;;5088373;28;20531;-65
2021/06/26 03:55:31;;;;;;;34.35;30.85;;;16.90;99.90;;;;;;5086956;28;20502;-65
2021/06/26 03:57:56;;;;;;;34.53;30.95;;;16.90;99.90;;;;;;5088818;28;20036;-65
2021/06/26 04:00:22;;;;;;;36.50;32.90;;;16.90;99.90;;;;;;5082140;28;20040;-65
2021/06/26 04:02:48;;;;;;;36.85;32.72;;;16.90;99.90;;;;;;5086808;28;20028;-65
2021/06/26 04:05:14;;;;;;;37.55;33.40;;;16.90;99.90;;;;;;5084061;28;20040;-65
2021/06/26 04:07:40;;;;;;;33.80;30.20;;;16.90;99.90;;;;;;5086249;28;20098;-65
2021/06/26 04:10:07;;;;;;;36.38;32.38;;;16.80;99.90;;;;;;5085814;28;20067;-65
2021/06/26 04:12:33;;;;;;;37.22;33.08;;;16.80;99.90;;;;;;5086736;28;20077;-65
2021/06/26 04:14:59;;;;;;;39.95;34.45;;;16.70;99.90;;;;;;5091463;28;20541;-65
2021/06/26 04:17:25;;;;;;;37.67;33.63;;;16.70;99.90;;;;;;5090407;28;20103;-65
2021/06/26 04:19:50;;;;;;;40.53;34.17;;;16.70;99.90;;;;;;5090156;28;20118;-65
2021/06/26 04:22:16;;;;;;;40.40;35.83;;;16.60;99.90;;;;;;5091004;28;20470;-65
2021/06/26 04:24:42;;;;;;;36.42;32.42;;;16.60;99.90;;;;;;5088964;28;20041;-65
2021/06/26 04:27:08;;;;;;;41.00;35.28;;;16.60;99.90;;;;;;5089779;28;20109;-65
2021/06/26 04:29:34;;;;;;;41.00;34.75;;;16.60;99.90;;;;;;5090049;28;20048;-65
2021/06/26 04:32:00;;;;;;;39.88;34.22;;;16.60;99.90;;;;;;5090399;28;20420;-65
2021/06/26 04:34:26;;;;;;;38.38;34.05;;;16.60;99.90;;;;;;5091066;28;20085;-65
2021/06/26 04:36:52;;;;;;;42.45;35.97;;;16.60;99.90;;;;;;5090526;28;20048;-66
2021/06/26 04:39:18;;;;;;;42.53;36.92;;;16.60;99.90;;;;;;5087664;28;20471;-66
2021/06/26 04:41:44;;;;;;;40.95;35.42;;;16.70;99.90;;;;;;5089453;28;20080;-65
2021/06/26 04:44:10;;;;;;;41.63;35.55;;;16.70;99.90;;;;;;5090251;28;20036;-65
2021/06/26 04:46:36;;;;;;;37.65;33.83;;;16.70;99.90;;;;;;5089388;28;20093;-66
2021/06/26 04:49:06;;;;;;;39.58;32.78;;;16.90;99.90;;;;;;5089562;28;20035;-65
2021/06/26 04:51:33;;;;;;;35.63;31.77;;;17.20;99.90;;;;;;5089057;28;20101;-65
2021/06/26 04:53:59;;;;;;;36.28;32.42;;;17.40;99.90;;;;;;5089811;28;20082;-65
2021/06/26 04:56:24;;;;;;;36.33;32.13;;;17.50;99.90;;;;;;5088565;28;20093;-65
2021/06/26 04:58:50;;;;;;;37.13;32.60;;;17.50;99.90;;;;;;5090051;28;20040;-65
2021/06/26 05:01:16;;;;;;;49.80;33.78;;;17.50;99.90;;;;;;5087379;28;20332;-65
2021/06/26 05:03:41;;;;;;;37.50;33.13;;;17.50;99.90;;;;;;5090822;28;20482;-65
2021/06/26 05:06:07;;;;;;;40.30;32.92;;;17.50;99.90;;;;;;5088614;28;20548;-65
2021/06/26 05:08:33;;;;;;;39.55;33.30;;;17.40;99.90;;;;;;5089438;28;20044;-65
2021/06/26 05:10:59;;;;;;;41.25;34.85;;;17.50;99.90;;;;;;5090261;28;20470;-65
2021/06/26 05:13:24;;;;;;;38.25;33.42;;;17.60;99.90;;;;;;5090647;28;20513;-65
2021/06/26 05:15:50;;;;;;;37.05;33.15;;;17.60;99.90;;;;;;5088314;28;20032;-65
2021/06/26 05:18:16;;;;;;;37.10;33.13;;;17.60;99.90;;;;;;5089752;28;20505;-65
2021/06/26 05:20:41;;;;;;;36.72;32.83;;;17.70;99.90;;;;;;5088673;28;20085;-65
2021/06/26 05:23:15;;;;;;;37.75;33.78;;;17.80;99.90;;;;;;5089220;28;20044;-66
2021/06/26 05:25:41;;;;;;;36.92;33.22;;;18.00;99.90;;;;;;5088184;28;20379;-65
2021/06/26 05:28:06;;;;;;;36.22;31.23;;;18.10;99.90;;;;;;5090630;28;20050;-65
2021/06/26 05:30:33;;;;;;;37.03;32.40;;;18.20;99.90;;;;;;5089753;28;20094;-65
2021/06/26 05:32:59;;;;;;;35.95;32.13;;;18.40;99.90;;;;;;5089366;28;21608;-65
2021/06/26 05:35:24;;;;;;;35.25;30.70;;;18.50;99.90;;;;;;5088557;28;20032;-65
2021/06/26 05:37:50;;;;;;;38.15;33.78;;;18.70;99.90;;;;;;5089548;28;20031;-65
2021/06/26 05:40:16;;;;;;;36.50;32.92;;;18.90;99.90;;;;;;5088153;28;20039;-65
2021/06/26 05:42:41;;;;;;;34.38;30.98;;;19.10;99.90;;;;;;5088247;28;20051;-65
2021/06/26 05:45:07;;;;;;;35.67;29.88;;;19.10;99.90;;;;;;5090064;28;20048;-65
2021/06/26 05:47:33;;;;;;;35.33;31.90;;;19.20;99.90;;;;;;5088655;28;20536;-65
2021/06/26 05:49:59;;;;;;;36.75;32.88;;;19.30;99.90;;;;;;5089306;28;20040;-65
2021/06/26 05:52:28;;;;;;;35.65;31.95;;;19.40;99.90;;;;;;5084811;28;20040;-65
2021/06/26 05:54:53;;;;;;;35.35;31.75;;;19.40;99.90;;;;;;5081963;28;20560;-65
2021/06/26 05:57:19;;;;;;;35.10;31.42;;;19.50;99.90;;;;;;5101082;28;20126;-65
2021/06/26 05:59:45;;;;;;;33.90;30.60;;;19.50;99.90;;;;;;5087546;28;20070;-66
2021/06/26 06:02:14;;;;;;;33.28;29.67;;;19.50;99.90;;;;;;5089330;28;20805;-65
2021/06/26 06:04:43;;;;;;;34.40;30.98;;;19.60;99.90;;;;;;5088439;28;20078;-65
2021/06/26 06:07:11;;;;;;;33.20;29.75;;;19.70;99.90;;;;;;5087439;28;20060;-65
2021/06/26 06:09:37;;;;;;;36.40;30.88;;;19.80;99.90;;;;;;5088878;28;20051;-65
2021/06/26 06:12:03;;;;;;;33.38;29.95;;;19.80;99.90;;;;;;5089230;28;20044;-65
2021/06/26 06:14:29;;;;;;;32.90;29.50;;;19.90;99.90;;;;;;5088201;28;20032;-65
2021/06/26 06:16:55;;;;;;;32.80;29.55;;;20.00;99.90;;;;;;5087060;28;20089;-65
2021/06/26 06:19:21;;;;;;;33.22;29.95;;;20.00;99.90;;;;;;5086989;28;20039;-65
2021/06/26 06:21:47;;;;;;;32.53;29.33;;;20.10;99.90;;;;;;5087460;28;20052;-65
2021/06/26 06:24:12;;;;;;;33.83;30.50;;;20.00;99.90;;;;;;5088351;28;20079;-65
2021/06/26 06:26:38;;;;;;;34.33;30.77;;;20.00;99.90;;;;;;5087930;28;20553;-65
2021/06/26 06:29:04;;;;;;;33.92;29.75;;;20.10;99.90;;;;;;5088152;28;20055;-65
2021/06/26 06:31:30;;;;;;;34.53;30.00;;;20.20;99.90;;;;;;5087585;28;20540;-65
2021/06/26 06:33:56;;;;;;;33.25;29.75;;;20.30;99.90;;;;;;5085886;28;20040;-65
2021/06/26 06:36:21;;;;;;;33.92;30.50;;;20.60;99.90;;;;;;5087351;28;20756;-65
2021/06/26 06:38:48;;;;;;;31.48;28.35;;;20.90;99.90;;;;;;5086968;28;20089;-65
2021/06/26 06:41:14;;;;;;;33.45;29.85;;;21.20;99.90;;;;;;5086550;28;20730;-65
2021/06/26 06:43:39;;;;;;;33.92;29.08;;;21.50;99.40;;;;;;5088315;28;20055;-65
2021/06/26 06:46:06;;;;;;;34.08;29.63;;;21.80;98.80;;;;;;5086992;28;20032;-65
2021/06/26 06:48:32;;;;;;;33.85;30.25;;;22.10;97.50;;;;;;5087636;28;20540;-65
2021/06/26 06:50:58;;;;;;;32.03;28.88;;;22.40;98.00;;;;;;5087684;28;20036;-66
2021/06/26 06:53:24;;;;;;;33.15;28.60;;;22.60;96.50;;;;;;5081348;28;20028;-66
2021/06/26 06:55:57;;;;;;;31.83;28.70;;;22.80;97.10;;;;;;5081509;28;20398;-65
2021/06/26 06:58:26;;;;;;;34.80;31.10;;;22.90;95.40;;;;;;5081236;28;20039;-66
2021/06/26 07:00:52;;;;;;;35.83;32.03;;;22.80;94.70;;;;;;5079836;28;20469;-65
2021/06/26 07:03:17;;;;;;;32.58;29.10;;;22.80;95.00;;;;;;5082451;28;20062;-65
2021/06/26 07:05:43;;;;;;;33.67;30.42;;;22.80;95.70;;;;;;5080926;28;20039;-65
2021/06/26 07:08:09;;;;;;;34.88;31.42;;;22.80;96.00;;;;;;5079623;28;20105;-65
2021/06/26 07:10:34;;;;;;;34.15;30.40;;;23.00;95.40;;;;;;5082121;28;20141;-66
2021/06/26 07:13:01;;;;;;;33.72;29.25;;;22.90;94.90;;;;;;5079297;28;20047;-66
2021/06/26 07:15:26;;;;;;;34.03;30.42;;;23.00;95.50;;;;;;5080067;28;20043;-66
2021/06/26 07:17:52;;;;;;;34.40;30.67;;;23.20;94.60;;;;;;5082180;28;20040;-66
2021/06/26 07:20:18;;;;;;;34.33;29.73;;;23.10;93.70;;;;;;5076004;28;20036;-66
2021/06/26 07:22:43;;;;;;;34.45;30.90;;;23.20;94.20;;;;;;5080064;28;20403;-66
2021/06/26 07:25:09;;;;;;;34.38;30.90;;;23.30;93.90;;;;;;5073836;28;20496;-66
2021/06/26 07:27:35;;;;;;;31.42;28.38;;;23.30;93.10;;;;;;5078486;28;20728;-65
2021/06/26 07:30:01;;;;;;;41.08;24.98;;;23.30;93.30;;;;;;5078188;28;20036;-64
2021/06/26 07:32:27;;;;;;;28.27;25.25;;;23.40;93.60;;;;;;5081004;28;20097;-64
2021/06/26 07:34:52;;;;;;;30.13;24.98;;;23.60;93.00;;;;;;5080665;28;20452;-65
2021/06/26 07:37:18;;;;;;;32.72;29.33;;;23.80;93.40;;;;;;5082140;28;20118;-65
2021/06/26 07:39:44;;;;;;;29.60;26.60;;;23.80;92.70;;;;;;5080507;28;20046;-65
2021/06/26 07:42:10;;;;;;;30.52;27.52;;;24.00;92.90;;;;;;5080124;28;20730;-65
2021/06/26 07:44:35;;;;;;;29.15;26.02;;;24.10;92.40;;;;;;5078650;28;20037;-65
2021/06/26 07:47:01;;;;;;;25.55;23.17;;;24.20;92.00;;;;;;5084683;28;20109;-66
2021/06/26 07:49:27;;;;;;;29.17;26.05;;;24.30;92.60;;;;;;5086742;28;20058;-65
2021/06/26 07:51:52;;;;;;;31.15;25.65;;;24.40;91.60;;;;;;5085187;28;20510;-65
2021/06/26 07:54:18;;;;;;;28.60;25.92;;;24.30;91.70;;;;;;5085599;28;20110;-65
2021/06/26 07:56:45;;;;;;;23.48;21.00;;;24.10;91.60;;;;;;5082791;28;20073;-65
2021/06/26 07:59:11;;;;;;;26.58;22.40;;;24.10;91.60;;;;;;5085563;28;20045;-65
2021/06/26 08:01:37;;;;;;;25.30;22.65;;;24.20;91.70;;;;;;5084515;28;20063;-65
2021/06/26 08:04:02;;;;;;;22.35;20.15;;;24.40;90.30;;;;;;5084758;28;20509;-65
2021/06/26 08:06:28;;;;;;;24.10;21.65;;;24.40;90.30;;;;;;5083802;28;20044;-65
2021/06/26 08:08:54;;;;;;;23.48;20.67;;;24.50;90.40;;;;;;5083582;28;20040;-65
2021/06/26 08:11:20;;;;;;;23.92;19.98;;;24.70;91.10;;;;;;5083446;28;20062;-65
2021/06/26 08:13:48;;;;;;;22.60;20.23;;;24.80;90.20;;;;;;5083332;28;20520;-65
2021/06/26 08:16:14;;;;;;;21.45;19.35;;;25.10;89.70;;;;;;5084474;28;20043;-64
2021/06/26 08:18:39;;;;;;;21.10;18.95;;;25.20;88.80;;;;;;5083150;28;20074;-65
2021/06/26 08:21:05;;;;;;;22.38;20.17;;;25.20;89.10;;;;;;5085171;28;20080;-65
2021/06/26 08:23:31;;;;;;;21.35;19.25;;;25.20;89.20;;;;;;5080859;28;20078;-65
2021/06/26 08:25:57;;;;;;;20.02;17.98;;;25.30;88.20;;;;;;5082647;28;20044;-65
2021/06/26 08:28:22;;;;;;;19.65;17.70;;;25.20;88.00;;;;;;5077927;28;20111;-64
2021/06/26 08:30:48;;;;;;;16.80;15.13;;;25.20;88.50;;;;;;5085313;28;20053;-64
2021/06/26 08:33:15;;;;;;;16.30;12.57;;;25.10;88.50;;;;;;5080875;28;21591;-65
2021/06/26 08:35:40;;;;;;;16.05;14.45;;;25.10;85.90;;;;;;5085766;28;20043;-64
2021/06/26 08:38:07;;;;;;;17.95;16.10;;;25.00;86.80;;;;;;5089792;28;20562;-64
2021/06/26 08:40:33;;;;;;;19.23;16.35;;;25.00;87.40;;;;;;5089659;28;20040;-64
2021/06/26 08:42:59;;;;;;;16.35;14.75;;;25.00;90.00;;;;;;5089274;28;20116;-64
2021/06/26 08:45:24;;;;;;;18.75;16.27;;;25.10;89.10;;;;;;5089056;28;20043;-64
2021/06/26 08:47:52;;;;;;;23.58;17.85;;;25.00;88.80;;;;;;5088251;28;20851;-64
2021/06/26 08:50:20;;;;;;;19.00;17.08;;;24.80;89.20;;;;;;5088844;28;20040;-64
2021/06/26 08:52:46;;;;;;;19.00;17.20;;;24.70;89.50;;;;;;5087473;28;20122;-65
2021/06/26 08:55:13;;;;;;;14.68;13.27;;;24.80;89.20;;;;;;5088387;28;20123;-64
2021/06/26 08:57:42;;;;;;;13.15;11.93;;;24.90;87.00;;;;;;5086019;28;20051;-65
2021/06/26 09:00:14;;;;;;;13.32;12.02;;;24.90;86.80;;;;;;5087158;28;20803;-64
2021/06/26 09:02:41;;;;;;;10.88;9.88;;;25.00;86.80;;;;;;5089298;28;20056;-64
2021/06/26 09:05:08;;;;;;;13.98;12.52;;;25.10;86.80;;;;;;5086736;28;20504;-64
2021/06/26 09:07:35;;;;;;;16.77;15.07;;;25.20;86.60;;;;;;5088299;28;20032;-64
2021/06/26 09:10:13;;;;;;;13.85;12.45;;;25.10;86.90;;;;;;5085667;28;20116;-64
2021/06/26 09:12:40;;;;;;;13.20;11.90;;;24.90;86.50;;;;;;5088396;28;20047;-64
2021/06/26 09:15:07;;;;;;;14.93;12.75;;;25.00;87.10;;;;;;5088513;28;20032;-64
2021/06/26 09:17:34;;;;;;;11.07;9.98;;;25.00;86.50;;;;;;5086619;28;20043;-64
2021/06/26 09:20:05;;;;;;;15.30;12.07;;;25.00;88.30;;;;;;5085497;28;20032;-64
2021/06/26 09:22:43;;;;;;;11.48;10.38;;;24.80;87.70;;;;;;5085895;28;20132;-64
2021/06/26 09:25:29;;;;;;;11.25;8.88;;;24.90;87.60;;;;;;5084235;28;20048;-64
2021/06/26 09:27:57;;;;;;;11.68;9.52;;;25.00;87.00;;;;;;5083126;28;20040;-64
2021/06/26 09:30:42;;;;;;;11.00;9.95;;;25.00;86.20;;;;;;5080960;28;20070;-64
2021/06/26 09:33:18;;;;;;;;;;;25.10;86.50;;;;;;5086103;28;20044;-64
2021/06/26 09:35:45;;;;;;;;;;;25.10;87.30;;;;;;5087086;28;19934;-64
2021/06/26 09:38:11;;;;;;;12.18;10.98;;;25.10;86.00;;;;;;5087251;28;20309;-65
2021/06/26 09:40:42;;;;;;;14.00;9.57;;;24.90;87.00;;;;;;5088100;28;20051;-64
2021/06/26 09:43:13;;;;;;;11.50;9.30;;;24.90;87.00;;;;;;5087029;28;20036;-64
2021/06/26 09:45:39;;;;;;;13.60;9.57;;;24.90;88.00;;;;;;5085091;28;20090;-65
2021/06/26 09:48:06;;;;;;;12.05;10.20;;;24.80;88.20;;;;;;5088028;28;20040;-65
2021/06/26 09:50:35;;;;;;;11.32;10.32;;;24.70;87.50;;;;;;5085807;28;20044;-65
2021/06/26 09:53:04;;;;;;;12.10;10.85;;;24.60;87.40;;;;;;5089304;28;20048;-65
2021/06/26 09:55:39;;;;;;;10.80;9.52;;;24.60;87.90;;;;;;5087667;28;20086;-65
2021/06/26 09:58:13;;;;;;;10.10;9.07;;;24.60;88.40;;;;;;5089241;28;20044;-65
2021/06/26 10:00:43;;;;;;;8.87;7.87;;;24.70;89.60;;;;;;5086826;28;20131;-65
2021/06/26 10:03:16;;;;;;;12.80;8.85;;;24.80;90.10;;;;;;5086521;28;20090;-65
2021/06/26 10:05:44;;;;;;;8.75;7.72;;;24.80;89.40;;;;;;5087834;28;20039;-65
2021/06/26 10:08:10;;;;;;;8.35;7.38;;;24.80;89.30;;;;;;5088747;28;20157;-65
2021/06/26 10:10:36;;;;;;;9.40;8.50;;;24.80;90.10;;;;;;5085596;28;20115;-65
2021/06/26 10:13:02;;;;;;;10.60;8.98;;;25.00;89.90;;;;;;5088306;28;20169;-65
2021/06/26 10:15:31;;;;;;;10.68;9.60;;;25.10;88.90;;;;;;5088150;28;20028;-64
2021/06/26 10:17:57;;;;;;;9.40;8.50;;;25.30;87.00;;;;;;5091005;28;20050;-64
2021/06/26 10:20:25;;;;;;;9.27;8.48;;;25.40;86.00;;;;;;5088335;28;20040;-64
2021/06/26 10:23:00;;;;;;;8.32;7.60;;;25.50;85.90;;;;;;5090814;28;20028;-64
2021/06/26 10:25:37;;;;;;;7.70;7.00;;;25.50;86.30;;;;;;5086422;28;20039;-65
2021/06/26 10:28:14;;;;;;;10.05;9.13;;;25.70;83.60;;;;;;5087727;28;20051;-65
2021/06/26 10:30:40;;;;;;;8.05;7.25;;;25.80;83.70;;;;;;5085799;28;20043;-65
2021/06/26 10:33:09;;;;;;;7.07;6.47;;;25.90;84.40;;;;;;5089517;28;20119;-65
2021/06/26 10:35:36;;;;;;;15.40;7.38;;;26.10;84.50;;;;;;5085354;28;20032;-65
2021/06/26 10:38:04;;;;;;;7.18;6.47;;;26.30;83.00;;;;;;5088665;28;20040;-65
2021/06/26 10:40:36;;;;;;;5.32;4.45;;;26.50;81.30;;;;;;5087529;28;20051;-65
2021/06/26 10:43:22;;;;;;;5.47;4.40;;;26.60;80.50;;;;;;5086647;28;20063;-65
2021/06/26 10:45:51;;;;;;;6.05;5.50;;;26.80;81.00;;;;;;5087481;28;20040;-65
2021/06/26 10:48:27;;;;;;;5.85;5.38;;;26.50;79.70;;;;;;5088212;28;20028;-65
2021/06/26 10:50:55;;;;;;;6.43;5.93;;;26.40;80.70;;;;;;5088725;28;20545;-66
2021/06/26 10:53:25;;;;;;;6.32;5.72;;;26.10;79.00;;;;;;5086130;28;20178;-65
2021/06/26 10:56:09;;;;;;;6.50;5.90;;;25.90;79.60;;;;;;5088776;28;20043;-65
2021/06/26 10:58:38;;;;;;;5.35;4.85;;;25.90;81.50;;;;;;5088483;28;20111;-66
2021/06/26 11:01:13;;;;;;;6.53;5.95;;;25.80;81.40;;;;;;5086025;28;20040;-65
2021/06/26 11:03:38;;;;;;;5.10;4.70;;;25.70;80.80;;;;;;5088208;28;20040;-65
2021/06/26 11:06:26;;;;;;;5.15;4.65;;;25.60;82.90;;;;;;5088442;28;20379;-65
2021/06/26 11:08:56;;;;;;;5.20;4.70;;;25.50;83.80;;;;;;5086545;28;20044;-66
2021/06/26 11:11:29;;;;;;;4.75;4.43;;;25.50;83.20;;;;;;5084448;28;20119;-65
2021/06/26 11:14:06;;;;;;;5.35;4.75;;;25.40;85.10;;;;;;5088058;28;20118;-65
2021/06/26 11:16:31;;;;;;;4.30;3.97;;;25.40;84.30;;;;;;5086394;28;20378;-65
2021/06/26 11:18:57;;;;;;;4.50;4.10;;;25.40;85.20;;;;;;5089071;28;20073;-65
2021/06/26 11:21:23;;;;;;;5.63;4.88;;;25.40;84.50;;;;;;5084489;28;20063;-65
2021/06/26 11:23:50;;;;;;;6.97;4.40;;;25.50;84.10;;;;;;5082593;28;20521;-65
2021/06/26 11:26:16;;;;;;;5.40;4.60;;;25.50;83.60;;;;;;5087377;28;20032;-65
2021/06/26 11:28:42;;;;;;;4.03;3.72;;;25.60;83.70;;;;;;5088503;28;20454;-65
2021/06/26 11:31:08;;;;;;;4.60;4.20;;;25.80;84.10;;;;;;5088619;28;20058;-65
2021/06/26 11:33:36;;;;;;;4.82;4.43;;;25.90;82.00;;;;;;5086473;28;20040;-65
2021/06/26 11:36:03;;;;;;;5.20;4.70;;;26.00;81.30;;;;;;5088982;28;20040;-65
2021/06/26 11:38:29;;;;;;;35.55;6.05;;;26.00;81.70;;;;;;5088369;28;20087;-65
2021/06/26 11:41:02;;;;;;;5.30;3.95;;;26.10;81.80;;;;;;5087945;28;20498;-65
2021/06/26 11:43:28;;;;;;;4.10;3.38;;;26.30;81.10;;;;;;5088733;28;20046;-65
2021/06/26 11:45:53;;;;;;;6.53;3.53;;;26.40;78.10;;;;;;5089439;28;20483;-65
2021/06/26 11:48:20;;;;;;;4.20;3.78;;;26.10;80.70;;;;;;5088762;28;20051;-65
2021/06/26 11:50:55;;;;;;;4.60;3.03;;;26.00;81.20;;;;;;5089356;28;20040;-66
2021/06/26 11:53:23;;;;;;;;;;;26.00;79.80;;;;;;5087332;28;20053;-65
2021/06/26 11:56:00;;;;;;;2.25;2.05;;;26.10;80.80;;;;;;5087207;28;19923;-65
2021/06/26 11:58:44;;;;;;;2.15;1.50;;;26.30;80.00;;;;;;5087013;28;20036;-65
2021/06/26 12:01:36;;;;;;;3.38;1.65;;;26.50;78.30;;;;;;5088783;28;20032;-66
2021/06/26 12:04:03;;;;;;;4.45;1.60;;;26.60;78.60;;;;;;5088883;28;20495;-65
2021/06/26 12:06:34;;;;;;;2.08;1.05;;;26.70;76.80;;;;;;5088462;28;20693;-66
2021/06/26 12:09:00;;;;;;;2.72;1.65;;;26.50;73.90;;;;;;5085814;28;20040;-65
2021/06/26 12:11:28;;;;;;;2.40;1.75;;;26.60;74.00;;;;;;5084875;28;20040;-66
2021/06/26 12:13:56;;;;;;;3.53;1.85;;;26.70;74.30;;;;;;5086435;28;20044;-65
2021/06/26 12:16:23;;;;;;;1.52;1.42;;;26.90;75.00;;;;;;5085603;28;20047;-65
2021/06/26 12:18:57;;;;;;;2.28;1.60;;;27.00;72.60;;;;;;5104604;28;20398;-65
2021/06/26 12:21:26;;;;;;;3.47;1.27;;;27.00;74.70;;;;;;5087186;28;20032;-65
2021/06/26 12:23:53;;;;;;;1.73;1.17;;;27.30;72.40;;;;;;5086866;28;20482;-65
2021/06/26 12:26:27;;;;;;;1.98;1.15;;;27.30;74.00;;;;;;5089682;28;20068;-65
2021/06/26 12:28:54;;;;;;;21.60;7.07;;;27.30;72.40;;;;;;5088148;28;20380;-66
2021/06/26 12:31:21;;;;;;;1.92;1.70;;;27.10;72.50;;;;;;5085050;28;20052;-65